sensor_id;sensor_type;location;lat;lon;timestamp;pressure;altitude;pressure_sealevel;temperature;humidity
163;BME280;3946;48.958;8.284;2023-04-27T00:01:41;100587.09;;;8.74;88.78
163;BME280;3946;48.958;8.284;2023-04-27T00:04:26;100572.88;;;8.66;89.44
163;BME280;3946;48.958;8.284;2023-04-27T00:07:12;100568.66;;;8.48;90.48
163;BME280;3946;48.958;8.284;2023-04-27T00:09:57;100573.06;;;8.46;90.75
163;BME280;3946;48.958;8.284;2023-04-27T00:12:42;100577.66;;;8.23;92.65
163;BME280;3946;48.958;8.284;2023-04-27T00:15:27;100572.56;;;8.04;93.86
163;BME280;3946;48.958;8.284;2023-04-27T00:18:12;100574.53;;;7.99;95.49
163;BME280;3946;48.958;8.284;2023-04-27T00:20:57;100568.31;;;7.86;96.87
163;BME280;3946;48.958;8.284;2023-04-27T00:23:43;100566.00;;;7.80;97.21
163;BME280;3946;48.958;8.284;2023-04-27T00:26:28;100572.84;;;7.81;97.28
163;BME280;3946;48.958;8.284;2023-04-27T00:29:14;100570.13;;;8.19;97.75
163;BME280;3946;48.958;8.284;2023-04-27T00:31:58;100566.72;;;8.18;97.86
163;BME280;3946;48.958;8.284;2023-04-27T00:34:43;100563.75;;;7.91;99.17
163;BME280;3946;48.958;8.284;2023-04-27T00:37:30;100563.13;;;7.69;100.00
163;BME280;3946;48.958;8.284;2023-04-27T00:40:16;100566.91;;;7.45;100.00
163;BME280;3946;48.958;8.284;2023-04-27T00:43:01;100570.19;;;7.29;100.00
163;BME280;3946;48.958;8.284;2023-04-27T00:45:46;100564.47;;;7.23;100.00
163;BME280;3946;48.958;8.284;2023-04-27T00:48:31;100566.00;;;7.46;100.00
163;BME280;3946;48.958;8.284;2023-04-27T00:51:15;100571.56;;;7.36;100.00
163;BME280;3946;48.958;8.284;2023-04-27T00:54:00;100570.06;;;7.50;100.00
163;BME280;3946;48.958;8.284;2023-04-27T00:56:49;100571.22;;;7.44;100.00
163;BME280;3946;48.958;8.284;2023-04-27T00:59:34;100568.56;;;7.46;100.00
163;BME280;3946;48.958;8.284;2023-04-27T01:02:19;100567.34;;;7.53;100.00
163;BME280;3946;48.958;8.284;2023-04-27T01:05:04;100573.84;;;7.61;100.00
163;BME280;3946;48.958;8.284;2023-04-27T01:07:49;100571.50;;;7.74;99.80
163;BME280;3946;48.958;8.284;2023-04-27T01:10:34;100568.44;;;7.66;98.87
163;BME280;3946;48.958;8.284;2023-04-27T01:13:21;100562.94;;;7.91;99.03
163;BME280;3946;48.958;8.284;2023-04-27T01:16:06;100568.06;;;7.73;98.95
163;BME280;3946;48.958;8.284;2023-04-27T01:18:50;100570.94;;;7.67;97.99
163;BME280;3946;48.958;8.284;2023-04-27T01:21:36;100573.09;;;7.77;97.57
163;BME280;3946;48.958;8.284;2023-04-27T01:24:22;100572.56;;;7.87;97.00
163;BME280;3946;48.958;8.284;2023-04-27T01:27:07;100569.69;;;7.93;94.69
163;BME280;3946;48.958;8.284;2023-04-27T01:29:54;100573.94;;;7.77;95.59
163;BME280;3946;48.958;8.284;2023-04-27T01:32:41;100575.59;;;7.78;95.98
163;BME280;3946;48.958;8.284;2023-04-27T01:35:26;100583.88;;;8.02;94.75
163;BME280;3946;48.958;8.284;2023-04-27T01:38:11;100579.75;;;7.98;94.55
163;BME280;3946;48.958;8.284;2023-04-27T01:40:57;100581.34;;;7.83;95.86
163;BME280;3946;48.958;8.284;2023-04-27T01:43:45;100585.22;;;7.75;96.30
163;BME280;3946;48.958;8.284;2023-04-27T01:46:30;100579.53;;;7.85;96.97
163;BME280;3946;48.958;8.284;2023-04-27T01:49:14;100582.34;;;7.98;96.90
163;BME280;3946;48.958;8.284;2023-04-27T01:51:59;100582.66;;;7.92;96.77
163;BME280;3946;48.958;8.284;2023-04-27T01:54:44;100583.84;;;7.85;97.12
163;BME280;3946;48.958;8.284;2023-04-27T01:57:32;100580.06;;;7.75;97.95
163;BME280;3946;48.958;8.284;2023-04-27T02:00:18;100585.28;;;7.73;98.21
163;BME280;3946;48.958;8.284;2023-04-27T02:03:06;100585.28;;;7.73;97.97
163;BME280;3946;48.958;8.284;2023-04-27T02:05:51;100577.56;;;8.07;96.06
163;BME280;3946;48.958;8.284;2023-04-27T02:08:36;100578.19;;;7.95;95.33
163;BME280;3946;48.958;8.284;2023-04-27T02:11:21;100579.75;;;7.98;95.53
163;BME280;3946;48.958;8.284;2023-04-27T02:14:09;100580.66;;;8.14;95.12
163;BME280;3946;48.958;8.284;2023-04-27T02:16:55;100584.00;;;7.99;95.12
163;BME280;3946;48.958;8.284;2023-04-27T02:19:40;100584.34;;;8.10;96.20
163;BME280;3946;48.958;8.284;2023-04-27T02:22:25;100587.50;;;7.98;96.16
163;BME280;3946;48.958;8.284;2023-04-27T02:25:10;100596.06;;;7.81;97.60
163;BME280;3946;48.958;8.284;2023-04-27T03:19:26;100603.66;;;7.48;95.86
163;BME280;3946;48.958;8.284;2023-04-27T03:22:11;100600.47;;;7.43;95.58
163;BME280;3946;48.958;8.284;2023-04-27T03:24:56;100599.06;;;7.36;95.32
163;BME280;3946;48.958;8.284;2023-04-27T03:27:41;100601.31;;;7.44;95.51
163;BME280;3946;48.958;8.284;2023-04-27T03:30:26;100599.06;;;7.36;95.30
163;BME280;3946;48.958;8.284;2023-04-27T03:33:11;100611.19;;;7.34;95.66
163;BME280;3946;48.958;8.284;2023-04-27T03:35:58;100621.75;;;7.29;95.49
163;BME280;3946;48.958;8.284;2023-04-27T03:39:02;100603.97;;;7.42;94.74
163;BME280;3946;48.958;8.284;2023-04-27T03:45:47;100601.19;;;7.64;95.91
163;BME280;3946;48.958;8.284;2023-04-27T03:48:50;100603.25;;;7.38;96.30
163;BME280;3946;48.958;8.284;2023-04-27T03:51:54;100603.75;;;7.47;95.38
163;BME280;3946;48.958;8.284;2023-04-27T03:58:19;100618.16;;;7.32;95.62
163;BME280;3946;48.958;8.284;2023-04-27T04:04:58;100612.94;;;7.33;94.66
163;BME280;3946;48.958;8.284;2023-04-27T04:08:03;100619.09;;;7.67;93.87
163;BME280;3946;48.958;8.284;2023-04-27T04:11:06;100616.09;;;7.40;94.45
163;BME280;3946;48.958;8.284;2023-04-27T04:17:32;100615.81;;;7.46;94.00
163;BME280;3946;48.958;8.284;2023-04-27T04:24:18;100619.97;;;7.49;94.00
163;BME280;3946;48.958;8.284;2023-04-27T04:30:45;100608.16;;;7.45;94.04
163;BME280;3946;48.958;8.284;2023-04-27T04:34:07;100608.28;;;7.23;94.23
163;BME280;3946;48.958;8.284;2023-04-27T04:37:11;100615.19;;;7.22;94.66
163;BME280;3946;48.958;8.284;2023-04-27T04:39:58;100621.38;;;7.37;95.44
163;BME280;3946;48.958;8.284;2023-04-27T04:42:43;100614.63;;;7.34;94.15
163;BME280;3946;48.958;8.284;2023-04-27T04:46:05;100612.88;;;7.35;94.01
163;BME280;3946;48.958;8.284;2023-04-27T04:49:27;100621.88;;;7.45;94.23
163;BME280;3946;48.958;8.284;2023-04-27T05:20:07;100626.91;;;8.19;86.35
163;BME280;3946;48.958;8.284;2023-04-27T05:23:10;100630.25;;;8.21;85.82
163;BME280;3946;48.958;8.284;2023-04-27T05:30:12;100630.78;;;8.27;84.17
163;BME280;3946;48.958;8.284;2023-04-27T05:36:20;100625.63;;;8.45;82.09
163;BME280;3946;48.958;8.284;2023-04-27T05:42:28;100627.75;;;8.54;81.37
163;BME280;3946;48.958;8.284;2023-04-27T05:52:15;100609.03;;;8.99;78.29
163;BME280;3946;48.958;8.284;2023-04-27T05:58:23;100621.91;;;9.16;77.77
163;BME280;3946;48.958;8.284;2023-04-27T06:01:26;100608.97;;;9.16;77.33
163;BME280;3946;48.958;8.284;2023-04-27T06:11:33;100613.16;;;9.34;76.24
163;BME280;3946;48.958;8.284;2023-04-27T06:14:35;100612.75;;;9.58;76.05
163;BME280;3946;48.958;8.284;2023-04-27T06:24:41;100583.69;;;9.98;72.38
163;BME280;3946;48.958;8.284;2023-04-27T06:33:35;100594.44;;;10.06;72.47
163;BME280;3946;48.958;8.284;2023-04-27T06:36:39;100587.38;;;10.24;71.99
163;BME280;3946;48.958;8.284;2023-04-27T06:40:01;100592.69;;;10.37;72.01
163;BME280;3946;48.958;8.284;2023-04-27T06:43:04;100583.16;;;10.51;71.70
163;BME280;3946;48.958;8.284;2023-04-27T06:46:25;100593.53;;;10.51;71.18
163;BME280;3946;48.958;8.284;2023-04-27T06:52:53;100608.16;;;10.67;72.21
163;BME280;3946;48.958;8.284;2023-04-27T06:55:38;100604.63;;;10.54;71.43
163;BME280;3946;48.958;8.284;2023-04-27T07:02:22;100607.38;;;11.07;71.69
163;BME280;3946;48.958;8.284;2023-04-27T07:05:44;100619.25;;;11.11;72.16
163;BME280;3946;48.958;8.284;2023-04-27T07:08:48;100616.81;;;11.22;71.69
163;BME280;3946;48.958;8.284;2023-04-27T07:14:55;100612.84;;;11.58;71.31
163;BME280;3946;48.958;8.284;2023-04-27T07:17:39;100558.66;;;11.80;69.58
163;BME280;3946;48.958;8.284;2023-04-27T07:20:44;100604.38;;;11.83;70.89
163;BME280;3946;48.958;8.284;2023-04-27T07:23:29;100572.94;;;12.13;69.28
163;BME280;3946;48.958;8.284;2023-04-27T07:26:52;100576.69;;;12.09;68.91
163;BME280;3946;48.958;8.284;2023-04-27T07:40:38;100488.50;;;12.82;65.17
163;BME280;3946;48.958;8.284;2023-04-27T07:43:43;100511.50;;;12.99;65.50
163;BME280;3946;48.958;8.284;2023-04-27T07:55:58;100475.97;;;13.58;64.10
163;BME280;3946;48.958;8.284;2023-04-27T07:59:21;100456.28;;;13.43;63.25
163;BME280;3946;48.958;8.284;2023-04-27T08:12:49;100463.47;;;13.63;62.68
163;BME280;3946;48.958;8.284;2023-04-27T08:15:54;100432.34;;;13.73;61.44
163;BME280;3946;48.958;8.284;2023-04-27T08:18:57;100475.50;;;13.64;63.02
163;BME280;3946;48.958;8.284;2023-04-27T08:31:33;100452.38;;;14.62;61.96
163;BME280;3946;48.958;8.284;2023-04-27T08:34:36;100431.47;;;14.84;60.79
163;BME280;3946;48.958;8.284;2023-04-27T08:47:29;100373.03;;;15.28;57.95
163;BME280;3946;48.958;8.284;2023-04-27T08:53:38;100419.47;;;15.46;59.17
163;BME280;3946;48.958;8.284;2023-04-27T08:56:47;100446.44;;;15.14;60.69
163;BME280;3946;48.958;8.284;2023-04-27T08:59:32;100393.31;;;15.78;58.73
163;BME280;3946;48.958;8.284;2023-04-27T09:02:44;100368.56;;;15.82;57.27
163;BME280;3946;48.958;8.284;2023-04-27T09:09:28;100366.00;;;16.31;56.33
163;BME280;3946;48.958;8.284;2023-04-27T09:12:30;100354.97;;;16.18;56.28
163;BME280;3946;48.958;8.284;2023-04-27T09:15:15;100363.19;;;16.14;55.74
163;BME280;3946;48.958;8.284;2023-04-27T09:18:20;100369.97;;;16.26;56.25
163;BME280;3946;48.958;8.284;2023-04-27T09:24:49;100318.56;;;16.55;54.61
163;BME280;3946;48.958;8.284;2023-04-27T09:27:54;100301.34;;;16.53;53.85
163;BME280;3946;48.958;8.284;2023-04-27T09:34:58;100316.94;;;16.83;54.20
163;BME280;3946;48.958;8.284;2023-04-27T09:54:38;100293.09;;;16.96;52.90
163;BME280;3946;48.958;8.284;2023-04-27T10:01:06;100282.63;;;16.96;52.36
163;BME280;3946;48.958;8.284;2023-04-27T10:04:19;100249.47;;;17.33;51.39
163;BME280;3946;48.958;8.284;2023-04-27T10:17:33;100263.44;;;17.14;51.58
163;BME280;3946;48.958;8.284;2023-04-27T10:20:27;100207.28;;;17.36;49.50
163;BME280;3946;48.958;8.284;2023-04-27T10:23:31;100207.00;;;17.67;49.12
163;BME280;3946;48.958;8.284;2023-04-27T10:26:34;100310.16;;;18.21;52.28
163;BME280;3946;48.958;8.284;2023-04-27T10:36:07;100159.25;;;18.52;46.82
163;BME280;3946;48.958;8.284;2023-04-27T10:39:15;100197.28;;;18.48;48.38
163;BME280;3946;48.958;8.284;2023-04-27T10:49:40;100161.75;;;18.36;47.00
163;BME280;3946;48.958;8.284;2023-04-27T10:52:26;100167.94;;;18.52;47.30
163;BME280;3946;48.958;8.284;2023-04-27T10:59:11;100142.06;;;18.58;46.66
163;BME280;3946;48.958;8.284;2023-04-27T11:08:22;100117.97;;;18.80;45.15
163;BME280;3946;48.958;8.284;2023-04-27T11:11:25;100102.38;;;19.12;44.63
163;BME280;3946;48.958;8.284;2023-04-27T11:18:10;100085.53;;;19.39;43.94
163;BME280;3946;48.958;8.284;2023-04-27T11:21:14;100068.34;;;19.03;43.83
163;BME280;3946;48.958;8.284;2023-04-27T11:31:58;100148.56;;;19.89;46.12
163;BME280;3946;48.958;8.284;2023-04-27T11:38:25;100089.28;;;19.37;44.56
163;BME280;3946;48.958;8.284;2023-04-27T11:41:53;100013.13;;;20.02;42.12
163;BME280;3946;48.958;8.284;2023-04-27T11:48:21;100093.00;;;19.60;44.78
163;BME280;3946;48.958;8.284;2023-04-27T11:51:25;100060.91;;;20.30;43.62
163;BME280;3946;48.958;8.284;2023-04-27T11:54:11;99984.75;;;20.83;41.03
163;BME280;3946;48.958;8.284;2023-04-27T12:00:37;99987.19;;;20.54;41.00
163;BME280;3946;48.958;8.284;2023-04-27T12:14:09;99994.25;;;20.62;40.97
163;BME280;3946;48.958;8.284;2023-04-27T12:23:20;100001.41;;;20.76;41.62
163;BME280;3946;48.958;8.284;2023-04-27T12:26:42;100019.69;;;20.77;42.02
163;BME280;3946;48.958;8.284;2023-04-27T12:37:09;100048.16;;;19.94;43.14
163;BME280;3946;48.958;8.284;2023-04-27T12:40:12;99992.50;;;20.30;41.13
163;BME280;3946;48.958;8.284;2023-04-27T12:42:57;99994.84;;;20.72;41.04
163;BME280;3946;48.958;8.284;2023-04-27T12:56:08;100017.63;;;20.56;41.90
163;BME280;3946;48.958;8.284;2023-04-27T12:59:10;100025.91;;;20.21;42.50
163;BME280;3946;48.958;8.284;2023-04-27T13:02:32;99985.28;;;20.15;41.02
163;BME280;3946;48.958;8.284;2023-04-27T13:05:54;100089.88;;;20.21;44.68
163;BME280;3946;48.958;8.284;2023-04-27T13:15:43;100079.63;;;20.67;44.11
163;BME280;3946;48.958;8.284;2023-04-27T13:18:46;100051.75;;;20.81;43.38
163;BME280;3946;48.958;8.284;2023-04-27T13:42:07;99982.44;;;20.80;41.48
163;BME280;3946;48.958;8.284;2023-04-27T13:45:11;99956.50;;;20.69;40.36
163;BME280;3946;48.958;8.284;2023-04-27T13:48:14;100000.16;;;20.94;41.84
163;BME280;3946;48.958;8.284;2023-04-27T13:51:36;99982.00;;;21.30;40.79
163;BME280;3946;48.958;8.284;2023-04-27T13:58:21;99964.47;;;21.15;40.50
163;BME280;3946;48.958;8.284;2023-04-27T14:01:43;99990.81;;;20.53;41.36
163;BME280;3946;48.958;8.284;2023-04-27T14:18:00;99990.34;;;21.19;41.53
163;BME280;3946;48.958;8.284;2023-04-27T14:20:44;99962.47;;;21.17;40.73
163;BME280;3946;48.958;8.284;2023-04-27T14:23:47;99995.59;;;21.65;41.45
163;BME280;3946;48.958;8.284;2023-04-27T14:26:51;99954.84;;;22.05;40.25
163;BME280;3946;48.958;8.284;2023-04-27T14:29:55;100024.34;;;22.12;42.67
163;BME280;3946;48.958;8.284;2023-04-27T14:32:40;100015.59;;;21.37;42.51
163;BME280;3946;48.958;8.284;2023-04-27T14:42:47;100096.22;;;21.54;45.22
163;BME280;3946;48.958;8.284;2023-04-27T14:45:50;99954.69;;;21.46;40.68
163;BME280;3946;48.958;8.284;2023-04-27T14:48:54;99964.28;;;20.93;41.32
163;BME280;3946;48.958;8.284;2023-04-27T14:55:20;99994.25;;;20.53;42.38
163;BME280;3946;48.958;8.284;2023-04-27T15:09:09;100084.94;;;20.26;45.43
163;BME280;3946;48.958;8.284;2023-04-27T15:11:56;100133.44;;;20.32;47.05
163;BME280;3946;48.958;8.284;2023-04-27T15:20:49;100081.16;;;20.29;45.75
163;BME280;3946;48.958;8.284;2023-04-27T15:23:52;100069.41;;;20.64;45.09
163;BME280;3946;48.958;8.284;2023-04-27T15:26:38;100037.59;;;21.13;44.29
163;BME280;3946;48.958;8.284;2023-04-27T15:43:50;99994.91;;;20.55;43.78
163;BME280;3946;48.958;8.284;2023-04-27T15:46:54;100027.00;;;20.59;44.64
163;BME280;3946;48.958;8.284;2023-04-27T15:53:38;99973.97;;;20.62;42.76
163;BME280;3946;48.958;8.284;2023-04-27T15:56:23;99967.31;;;20.82;42.87
163;BME280;3946;48.958;8.284;2023-04-27T16:09:59;99958.31;;;20.21;43.18
163;BME280;3946;48.958;8.284;2023-04-27T16:20:07;100068.59;;;19.34;47.04
163;BME280;3946;48.958;8.284;2023-04-27T16:23:12;99998.84;;;19.72;45.02
163;BME280;3946;48.958;8.284;2023-04-27T16:33:02;100024.50;;;19.78;46.29
163;BME280;3946;48.958;8.284;2023-04-27T16:36:24;100000.13;;;20.00;45.59
163;BME280;3946;48.958;8.284;2023-04-27T16:49:52;100118.22;;;19.45;49.74
163;BME280;3946;48.958;8.284;2023-04-27T17:03:07;100065.53;;;19.54;47.63
163;BME280;3946;48.958;8.284;2023-04-27T17:06:12;100068.84;;;19.81;47.70
163;BME280;3946;48.958;8.284;2023-04-27T17:12:56;100003.28;;;19.87;45.85
163;BME280;3946;48.958;8.284;2023-04-27T17:16:18;100012.81;;;19.72;46.19
163;BME280;3946;48.958;8.284;2023-04-27T17:22:26;100003.25;;;19.47;45.95
163;BME280;3946;48.958;8.284;2023-04-27T17:28:51;100068.63;;;18.92;48.38
163;BME280;3946;48.958;8.284;2023-04-27T17:32:13;100090.16;;;18.61;49.09
163;BME280;3946;48.958;8.284;2023-04-27T17:35:16;100096.25;;;18.70;49.21
163;BME280;3946;48.958;8.284;2023-04-27T17:41:08;100062.09;;;18.62;48.16
163;BME280;3946;48.958;8.284;2023-04-27T17:50:55;100076.59;;;18.48;48.70
163;BME280;3946;48.958;8.284;2023-04-27T17:53:40;100129.72;;;18.06;50.21
163;BME280;3946;48.958;8.284;2023-04-27T18:03:29;100159.38;;;17.44;51.95
163;BME280;3946;48.958;8.284;2023-04-27T18:06:51;100175.25;;;17.05;52.89
163;BME280;3946;48.958;8.284;2023-04-27T18:09:55;100170.66;;;16.80;53.46
163;BME280;3946;48.958;8.284;2023-04-27T18:12:42;100199.91;;;16.66;54.42
163;BME280;3946;48.958;8.284;2023-04-27T18:19:28;100344.00;;;16.43;60.85
163;BME280;3946;48.958;8.284;2023-04-27T18:29:35;100293.00;;;15.99;60.25
163;BME280;3946;48.958;8.284;2023-04-27T18:32:37;100311.78;;;15.74;61.54
163;BME280;3946;48.958;8.284;2023-04-27T18:35:42;100337.38;;;15.59;63.16
163;BME280;3946;48.958;8.284;2023-04-27T18:44:54;100351.59;;;15.04;67.98
163;BME280;3946;48.958;8.284;2023-04-27T18:48:16;100348.78;;;14.96;70.37
163;BME280;3946;48.958;8.284;2023-04-27T18:51:20;100336.28;;;14.79;70.81
163;BME280;3946;48.958;8.284;2023-04-27T18:54:42;100325.91;;;14.67;71.42
163;BME280;3946;48.958;8.284;2023-04-27T19:00:50;100199.19;;;15.47;63.78
163;BME280;3946;48.958;8.284;2023-04-27T19:03:54;100191.59;;;15.44;62.98
163;BME280;3946;48.958;8.284;2023-04-27T19:13:26;100203.44;;;15.48;62.22
163;BME280;3946;48.958;8.284;2023-04-27T19:23:33;100220.94;;;15.26;62.77
163;BME280;3946;48.958;8.284;2023-04-27T19:26:37;100220.78;;;15.18;63.12
163;BME280;3946;48.958;8.284;2023-04-27T19:36:29;100250.53;;;14.85;64.29
163;BME280;3946;48.958;8.284;2023-04-27T19:39:51;100261.66;;;14.87;65.07
163;BME280;3946;48.958;8.284;2023-04-27T19:45:59;100261.53;;;14.68;65.33
163;BME280;3946;48.958;8.284;2023-04-27T19:49:02;100281.22;;;14.40;66.01
163;BME280;3946;48.958;8.284;2023-04-27T20:36:04;100253.94;;;14.44;66.79
163;BME280;3946;48.958;8.284;2023-04-27T20:38:50;100273.41;;;14.18;67.74
163;BME280;3946;48.958;8.284;2023-04-27T20:41:35;100303.41;;;14.01;69.52
163;BME280;3946;48.958;8.284;2023-04-27T20:44:27;100329.13;;;13.94;72.13
163;BME280;3946;48.958;8.284;2023-04-27T20:47:12;100322.25;;;13.93;73.24
163;BME280;3946;48.958;8.284;2023-04-27T20:49:58;100311.34;;;13.66;74.04
163;BME280;3946;48.958;8.284;2023-04-27T20:52:45;100266.63;;;13.39;73.88
163;BME280;3946;48.958;8.284;2023-04-27T20:55:30;100298.13;;;13.47;74.59
163;BME280;3946;48.958;8.284;2023-04-27T20:58:16;100289.72;;;13.43;74.56
163;BME280;3946;48.958;8.284;2023-04-27T21:01:00;100281.78;;;13.56;74.35
163;BME280;3946;48.958;8.284;2023-04-27T21:03:46;100281.53;;;13.48;73.94
163;BME280;3946;48.958;8.284;2023-04-27T21:06:31;100280.47;;;13.39;74.88
163;BME280;3946;48.958;8.284;2023-04-27T21:09:17;100277.50;;;13.32;74.90
163;BME280;3946;48.958;8.284;2023-04-27T21:12:04;100275.84;;;13.31;74.74
163;BME280;3946;48.958;8.284;2023-04-27T21:14:49;100294.22;;;13.30;76.65
163;BME280;3946;48.958;8.284;2023-04-27T21:17:34;100287.81;;;13.34;76.72
163;BME280;3946;48.958;8.284;2023-04-27T21:20:19;100283.31;;;13.25;77.84
163;BME280;3946;48.958;8.284;2023-04-27T21:23:05;100270.91;;;13.40;76.95
163;BME280;3946;48.958;8.284;2023-04-27T21:25:51;100270.28;;;13.36;77.13
163;BME280;3946;48.958;8.284;2023-04-27T21:28:36;100264.03;;;13.50;76.90
163;BME280;3946;48.958;8.284;2023-04-27T21:31:21;100267.38;;;13.63;76.41
163;BME280;3946;48.958;8.284;2023-04-27T21:34:06;100266.41;;;13.53;77.47
163;BME280;3946;48.958;8.284;2023-04-27T21:36:52;100269.97;;;13.41;77.68
163;BME280;3946;48.958;8.284;2023-04-27T21:39:37;100268.88;;;13.54;78.05
163;BME280;3946;48.958;8.284;2023-04-27T21:42:23;100281.72;;;13.11;79.42
163;BME280;3946;48.958;8.284;2023-04-27T21:45:09;100272.00;;;13.02;79.90
163;BME280;3946;48.958;8.284;2023-04-27T21:47:54;100273.31;;;13.08;79.78
163;BME280;3946;48.958;8.284;2023-04-27T21:50:39;100259.28;;;13.32;78.87
163;BME280;3946;48.958;8.284;2023-04-27T21:53:24;100265.88;;;13.14;79.57
163;BME280;3946;48.958;8.284;2023-04-27T21:56:09;100268.94;;;12.97;81.16
